createdAt,value
2022-12-04T00:02:12.660Z,0.60
2022-12-04T00:04:40.495Z,0.50
2022-12-04T00:07:07.181Z,0.60
2022-12-04T00:09:33.939Z,0.60
2022-12-04T00:12:00.609Z,0.60
2022-12-04T00:14:27.315Z,0.60
2022-12-04T00:16:53.993Z,0.60
2022-12-04T00:19:20.715Z,0.50
2022-12-04T00:21:50.351Z,0.60
2022-12-04T00:24:17.252Z,0.60
2022-12-04T00:26:43.911Z,0.50
2022-12-04T00:29:10.614Z,0.60
2022-12-04T00:31:37.539Z,1.30
2022-12-04T00:34:07.927Z,0.50
2022-12-04T00:36:35.063Z,0.50
2022-12-04T00:39:01.965Z,0.50
2022-12-04T00:41:30.442Z,0.50
2022-12-04T00:43:57.802Z,0.50
2022-12-04T00:46:24.759Z,0.60
2022-12-04T00:48:51.904Z,0.50
2022-12-04T00:51:24.503Z,0.50
2022-12-04T00:53:52.344Z,0.50
2022-12-04T00:56:22.053Z,0.50
2022-12-04T00:58:51.157Z,0.50
2022-12-04T01:01:20.138Z,0.50
2022-12-04T01:03:47.523Z,0.50
2022-12-04T01:06:20.185Z,0.60
2022-12-04T01:08:47.325Z,0.60
2022-12-04T01:11:14.078Z,0.60
2022-12-04T01:13:40.736Z,0.50
2022-12-04T01:16:07.840Z,0.50
2022-12-04T01:18:34.573Z,1.00
2022-12-04T01:21:01.221Z,0.50
2022-12-04T01:23:27.844Z,0.50
2022-12-04T01:25:56.444Z,0.50
2022-12-04T01:28:24.009Z,0.50
2022-12-04T01:31:09.488Z,0.50
2022-12-04T01:33:37.576Z,0.50
2022-12-04T01:36:07.371Z,0.50
2022-12-04T01:38:35.835Z,0.50
2022-12-04T01:41:02.741Z,0.50
2022-12-04T01:43:31.298Z,0.50
2022-12-04T01:45:59.622Z,0.50
2022-12-04T01:48:46.637Z,1.10
2022-12-04T01:51:24.787Z,0.50
2022-12-04T01:53:59.572Z,0.50
2022-12-04T01:56:43.311Z,0.50
2022-12-04T01:59:13.458Z,0.50
2022-12-04T02:01:52.569Z,0.50
2022-12-04T02:04:19.941Z,0.40
2022-12-04T02:06:46.711Z,0.40
2022-12-04T02:09:13.680Z,0.40
2022-12-04T02:12:11.699Z,0.40
2022-12-04T02:15:10.617Z,0.50
2022-12-04T02:17:48.322Z,0.40
2022-12-04T02:20:36.959Z,0.40
2022-12-04T02:23:15.323Z,0.40
2022-12-04T02:26:19.899Z,0.40
2022-12-04T02:28:56.364Z,0.40
2022-12-04T02:31:34.571Z,0.50
2022-12-04T02:34:13.535Z,0.50
2022-12-04T02:37:04.558Z,0.50
2022-12-04T02:39:46.075Z,0.50
2022-12-04T02:42:31.615Z,0.50
2022-12-04T02:45:06.040Z,0.50
2022-12-04T02:47:35.007Z,0.50
2022-12-04T02:50:06.996Z,0.50
2022-12-04T02:52:38.041Z,0.50
2022-12-04T02:55:16.658Z,0.50
2022-12-04T02:57:46.746Z,0.50
2022-12-04T03:00:14.138Z,0.50
2022-12-04T03:02:56.736Z,0.50
2022-12-04T03:05:38.703Z,0.50
2022-12-04T03:08:11.564Z,0.50
2022-12-04T03:10:43.723Z,0.50
2022-12-04T03:13:36.157Z,0.50
2022-12-04T03:16:37.606Z,0.50
2022-12-04T03:19:18.341Z,0.50
2022-12-04T03:21:51.235Z,0.50
2022-12-04T03:24:23.348Z,0.50
2022-12-04T03:27:32.097Z,0.50
2022-12-04T03:30:18.960Z,0.40
2022-12-04T03:33:13.470Z,0.40
2022-12-04T03:35:40.091Z,0.50
2022-12-04T03:38:27.674Z,0.50
2022-12-04T03:40:57.785Z,0.50
2022-12-04T03:43:31.929Z,0.40
2022-12-04T03:46:12.517Z,0.40
2022-12-04T03:48:49.964Z,0.40
2022-12-04T03:51:27.065Z,0.50
2022-12-04T03:54:02.774Z,0.40
2022-12-04T03:56:32.376Z,0.40
2022-12-04T03:59:09.332Z,0.40
2022-12-04T04:01:41.562Z,0.40
2022-12-04T04:04:12.883Z,0.40
2022-12-04T04:06:59.110Z,0.40
2022-12-04T04:09:29.026Z,0.40
2022-12-04T04:12:17.177Z,0.50
2022-12-04T04:15:27.986Z,0.40
2022-12-04T04:18:14.913Z,0.40
2022-12-04T04:21:20.169Z,0.40
2022-12-04T04:24:09.468Z,0.40
2022-12-04T04:26:41.520Z,0.40
2022-12-04T04:29:09.766Z,0.30
2022-12-04T04:31:39.351Z,0.40
2022-12-04T04:34:21.737Z,0.40
2022-12-04T04:37:23.689Z,0.40
2022-12-04T04:39:56.530Z,0.30
2022-12-04T04:42:37.554Z,0.30
2022-12-04T04:45:12.832Z,0.30
2022-12-04T04:48:07.992Z,0.30
2022-12-04T04:50:35.881Z,0.30
2022-12-04T04:53:11.924Z,0.30
2022-12-04T04:55:39.044Z,0.30
2022-12-04T04:58:14.573Z,0.40
2022-12-04T05:00:48.846Z,0.30
2022-12-04T05:03:15.486Z,0.30
2022-12-04T05:05:42.175Z,0.30
2022-12-04T05:08:08.994Z,0.30
2022-12-04T05:10:35.643Z,0.30
2022-12-04T05:13:02.257Z,0.30
2022-12-04T05:15:28.928Z,0.30
2022-12-04T05:17:56.673Z,0.30
2022-12-04T05:20:23.373Z,0.30
2022-12-04T05:22:50.018Z,0.30
2022-12-04T05:25:16.749Z,0.30
2022-12-04T05:27:43.408Z,0.30
2022-12-04T05:30:11.830Z,0.30
2022-12-04T05:32:38.512Z,0.30
2022-12-04T05:35:10.827Z,0.40
2022-12-04T05:37:39.848Z,0.40
2022-12-04T05:40:07.675Z,0.40
2022-12-04T05:42:34.829Z,0.40
2022-12-04T05:45:01.473Z,0.30
2022-12-04T05:47:28.125Z,0.40
2022-12-04T05:49:55.037Z,0.40
2022-12-04T05:52:21.908Z,0.30
2022-12-04T05:54:48.514Z,0.40
2022-12-04T05:57:15.191Z,0.40
2022-12-04T05:59:41.961Z,0.40
2022-12-04T06:02:08.724Z,0.40
2022-12-04T06:04:37.475Z,0.40
2022-12-04T06:07:04.654Z,0.40
2022-12-04T06:09:31.352Z,0.30
2022-12-04T06:11:58.867Z,0.30
2022-12-04T06:14:26.047Z,0.30
2022-12-04T06:16:52.816Z,0.40
2022-12-04T06:19:21.622Z,0.40
2022-12-04T06:21:51.008Z,0.30
2022-12-04T06:24:23.122Z,0.40
2022-12-04T06:27:25.587Z,0.30
2022-12-04T06:29:36.966Z,0.30
2022-12-04T06:32:03.886Z,0.30
2022-12-04T06:34:31.041Z,0.30
2022-12-04T06:36:57.700Z,0.30
2022-12-04T06:39:24.316Z,0.20
2022-12-04T06:41:51.143Z,0.20
2022-12-04T06:44:17.960Z,0.20
2022-12-04T06:46:47.251Z,0.20
2022-12-04T06:49:14.633Z,0.20
2022-12-04T06:51:41.342Z,0.20
2022-12-04T06:54:09.410Z,0.20
2022-12-04T06:56:36.153Z,0.20
2022-12-04T06:59:04.691Z,0.20
2022-12-04T07:01:33.160Z,0.20
2022-12-04T07:04:01.136Z,0.20
2022-12-04T07:06:30.184Z,0.20
2022-12-04T07:09:03.132Z,0.20
2022-12-04T07:11:32.149Z,0.20
2022-12-04T07:13:58.809Z,0.20
2022-12-04T07:16:26.600Z,0.20
2022-12-04T07:18:53.981Z,0.20
2022-12-04T07:21:26.569Z,0.20
2022-12-04T07:23:56.152Z,0.30
2022-12-04T07:26:25.200Z,0.30
2022-12-04T07:28:52.256Z,0.50
2022-12-04T07:31:21.130Z,0.30
2022-12-04T07:33:49.235Z,0.20
2022-12-04T07:36:19.412Z,0.30
2022-12-04T07:38:46.480Z,0.30
2022-12-04T07:41:14.046Z,0.20
2022-12-04T07:43:40.835Z,0.30
2022-12-04T07:46:11.328Z,0.30
2022-12-04T07:48:38.122Z,0.30
2022-12-04T07:51:13.004Z,0.30
2022-12-04T07:53:40.428Z,0.40
2022-12-04T07:56:08.027Z,0.30
2022-12-04T07:58:34.784Z,0.30
2022-12-04T08:01:14.919Z,0.40
2022-12-04T08:03:47.676Z,0.40
2022-12-04T08:06:15.964Z,0.40
2022-12-04T08:08:42.633Z,0.50
2022-12-04T08:11:12.489Z,0.50
2022-12-04T08:13:39.432Z,0.40
2022-12-04T08:16:08.348Z,0.50
2022-12-04T08:18:35.057Z,0.50
2022-12-04T08:21:07.085Z,0.40
2022-12-04T08:23:34.531Z,0.50
2022-12-04T08:26:02.151Z,0.40
2022-12-04T08:28:29.549Z,0.50
2022-12-04T08:31:01.611Z,0.40
2022-12-04T08:33:28.489Z,0.40
2022-12-04T08:35:55.112Z,0.50
2022-12-04T08:38:21.719Z,0.50
2022-12-04T08:40:48.360Z,0.50
2022-12-04T08:43:15.133Z,0.50
2022-12-04T08:45:41.757Z,0.60
2022-12-04T08:48:08.372Z,0.60
2022-12-04T08:50:35.065Z,0.60
2022-12-04T08:53:01.728Z,0.60
2022-12-04T08:55:28.332Z,0.70
2022-12-04T08:57:55.079Z,0.60
2022-12-04T09:00:21.822Z,0.60
2022-12-04T09:02:51.468Z,0.70
2022-12-04T09:05:18.149Z,0.70
2022-12-04T09:07:44.895Z,0.70
2022-12-04T09:10:12.320Z,0.70
2022-12-04T09:12:38.982Z,0.80
2022-12-04T09:15:06.445Z,0.80
2022-12-04T09:17:35.269Z,0.80
2022-12-04T09:20:03.933Z,0.80
2022-12-04T09:22:51.386Z,0.80
2022-12-04T09:25:18.289Z,0.90
2022-12-04T09:27:45.509Z,0.90
2022-12-04T09:30:12.653Z,0.90
2022-12-04T09:32:39.344Z,0.90
2022-12-04T09:35:07.222Z,0.90
2022-12-04T09:37:36.599Z,0.90
2022-12-04T09:40:07.799Z,0.90
2022-12-04T09:42:45.811Z,0.90
2022-12-04T09:45:17.597Z,0.90
2022-12-04T09:47:51.697Z,0.90
2022-12-04T09:50:25.163Z,0.90
2022-12-04T09:52:56.236Z,1.00
2022-12-04T09:55:27.950Z,1.00
2022-12-04T09:58:02.045Z,1.00
2022-12-04T10:00:30.784Z,1.00
2022-12-04T10:03:05.570Z,1.00
2022-12-04T10:05:41.060Z,1.00
2022-12-04T10:08:28.500Z,1.10
2022-12-04T10:11:00.273Z,1.10
2022-12-04T10:14:08.841Z,1.10
2022-12-04T10:17:05.961Z,1.10
2022-12-04T10:20:00.141Z,1.20
2022-12-04T10:22:40.062Z,1.20
2022-12-04T10:25:18.280Z,1.20
2022-12-04T10:27:53.265Z,1.20
2022-12-04T10:30:32.430Z,1.30
2022-12-04T10:33:04.976Z,1.30
2022-12-04T10:35:34.800Z,1.30
2022-12-04T10:38:10.473Z,1.30
2022-12-04T10:41:15.060Z,1.40
2022-12-04T10:43:46.482Z,1.30
2022-12-04T10:46:16.066Z,1.30
2022-12-04T10:48:45.288Z,1.40
2022-12-04T10:51:21.455Z,1.40
2022-12-04T10:53:51.124Z,1.50
2022-12-04T10:56:23.994Z,1.50
2022-12-04T10:59:01.483Z,1.50
2022-12-04T11:01:31.003Z,1.50
2022-12-04T11:04:05.915Z,1.60
2022-12-04T11:06:33.240Z,1.60
2022-12-04T11:09:01.984Z,1.60
2022-12-04T11:11:35.335Z,1.60
2022-12-04T11:14:03.185Z,1.70
2022-12-04T11:16:37.551Z,1.70
2022-12-04T11:19:18.805Z,1.70
2022-12-04T11:21:45.719Z,1.70
2022-12-04T11:24:32.651Z,1.80
2022-12-04T11:26:59.651Z,1.80
2022-12-04T11:29:44.580Z,1.80
2022-12-04T11:32:24.600Z,1.80
2022-12-04T11:34:54.122Z,1.90
2022-12-04T11:37:30.501Z,1.90
2022-12-04T11:39:57.706Z,2.00
2022-12-04T11:42:30.638Z,2.00
2022-12-04T11:45:01.796Z,2.00
2022-12-04T11:47:32.740Z,2.10
2022-12-04T11:50:05.865Z,2.00
2022-12-04T11:52:55.216Z,2.10
2022-12-04T11:55:29.308Z,2.10
2022-12-04T11:58:30.813Z,2.10
2022-12-04T12:01:03.512Z,2.00
2022-12-04T12:03:37.515Z,2.10
2022-12-04T12:06:34.678Z,2.10
2022-12-04T12:09:22.754Z,2.10
2022-12-04T12:11:59.859Z,2.10
2022-12-04T12:14:46.968Z,2.10
2022-12-04T12:17:51.925Z,2.10
2022-12-04T12:20:37.608Z,2.10
2022-12-04T12:23:22.744Z,2.10
2022-12-04T12:26:05.148Z,2.10
2022-12-04T12:28:37.397Z,2.20
2022-12-04T12:31:12.395Z,2.10
2022-12-04T12:33:53.237Z,2.20
2022-12-04T12:36:23.929Z,2.10
2022-12-04T12:38:56.205Z,2.10
2022-12-04T12:41:32.242Z,2.20
2022-12-04T12:44:07.137Z,2.10
2022-12-04T12:46:48.993Z,2.10
2022-12-04T12:49:26.934Z,2.10
2022-12-04T12:52:12.837Z,2.10
2022-12-04T12:54:39.467Z,2.10
2022-12-04T12:57:37.663Z,2.10
2022-12-04T13:00:19.478Z,2.10
2022-12-04T13:02:51.923Z,2.10
2022-12-04T13:05:25.565Z,2.10
2022-12-04T13:08:21.240Z,2.10
2022-12-04T13:11:20.005Z,2.10
2022-12-04T13:13:54.104Z,2.10
2022-12-04T13:16:31.187Z,2.10
2022-12-04T13:19:13.804Z,2.10
2022-12-04T13:21:59.134Z,2.10
2022-12-04T13:24:40.584Z,2.20
2022-12-04T13:27:16.180Z,2.10
2022-12-04T13:29:54.680Z,2.10
2022-12-04T13:32:48.916Z,2.10
2022-12-04T13:35:22.338Z,2.20
2022-12-04T13:37:57.572Z,2.10
2022-12-04T13:40:42.818Z,2.10
2022-12-04T13:43:41.678Z,2.20
2022-12-04T13:46:22.242Z,2.20
2022-12-04T13:48:49.294Z,2.20
2022-12-04T13:51:24.856Z,2.20
2022-12-04T13:54:13.208Z,2.20
2022-12-04T13:56:46.212Z,2.20
2022-12-04T13:59:18.997Z,2.20
2022-12-04T14:01:48.569Z,2.20
2022-12-04T14:04:29.272Z,2.20
2022-12-04T14:06:59.845Z,2.10
2022-12-04T14:09:42.551Z,2.10
2022-12-04T14:12:15.684Z,2.10
2022-12-04T14:14:55.731Z,2.10
2022-12-04T14:17:34.527Z,2.10
2022-12-04T14:20:08.021Z,2.10
2022-12-04T14:22:34.924Z,2.10
2022-12-04T14:25:13.479Z,2.10
2022-12-04T14:27:44.679Z,2.20
2022-12-04T14:30:36.526Z,2.20
2022-12-04T14:33:14.296Z,2.20
2022-12-04T14:35:49.642Z,2.20
2022-12-04T14:38:20.676Z,2.20
2022-12-04T14:40:50.556Z,2.20
2022-12-04T14:43:20.654Z,2.10
2022-12-04T14:45:54.322Z,2.10
2022-12-04T14:48:54.826Z,2.80
2022-12-04T14:51:46.064Z,2.10
2022-12-04T14:54:43.688Z,2.10
2022-12-04T14:57:28.316Z,2.10
2022-12-04T14:59:55.606Z,2.10
2022-12-04T15:02:33.387Z,2.10
2022-12-04T15:05:02.053Z,2.10
2022-12-04T15:07:31.700Z,2.10
2022-12-04T15:10:19.577Z,2.10
2022-12-04T15:12:50.705Z,2.10
2022-12-04T15:15:25.641Z,2.10
2022-12-04T15:17:56.406Z,2.20
2022-12-04T15:20:24.010Z,2.10
2022-12-04T15:22:50.918Z,2.10
2022-12-04T15:25:27.748Z,2.10
2022-12-04T15:28:16.507Z,2.10
2022-12-04T15:30:44.667Z,2.10
2022-12-04T15:33:36.759Z,2.10
2022-12-04T15:37:03.025Z,2.10
2022-12-04T15:39:33.003Z,2.10
2022-12-04T15:42:21.835Z,2.10
2022-12-04T15:45:00.769Z,2.10
2022-12-04T15:47:33.140Z,2.20
2022-12-04T15:50:16.100Z,2.20
2022-12-04T15:52:57.370Z,2.20
2022-12-04T15:55:26.079Z,2.10
2022-12-04T15:58:06.080Z,2.20
2022-12-04T16:00:40.421Z,2.20
2022-12-04T16:03:20.877Z,2.20
2022-12-04T16:05:47.892Z,2.30
2022-12-04T16:08:26.139Z,2.20
2022-12-04T16:11:24.512Z,2.30
2022-12-04T16:14:05.153Z,2.30
2022-12-04T16:16:31.969Z,2.30
2022-12-04T16:18:58.997Z,2.30
2022-12-04T16:21:30.910Z,2.30
2022-12-04T16:24:07.429Z,2.30
2022-12-04T16:26:34.320Z,2.30
2022-12-04T16:29:01.057Z,2.30
2022-12-04T16:31:27.770Z,2.30
2022-12-04T16:33:54.490Z,2.40
2022-12-04T16:36:21.354Z,2.40
2022-12-04T16:38:47.977Z,2.40
2022-12-04T16:41:16.904Z,2.40
2022-12-04T16:43:43.914Z,2.30
2022-12-04T16:46:15.921Z,2.40
2022-12-04T16:48:43.458Z,2.40
2022-12-04T16:51:19.444Z,2.40
2022-12-04T16:53:46.156Z,2.40
2022-12-04T16:56:13.018Z,2.40
2022-12-04T16:58:39.700Z,2.50
2022-12-04T17:01:27.555Z,2.40
2022-12-04T17:03:54.316Z,2.50
2022-12-04T17:06:21.039Z,2.50
2022-12-04T17:08:47.709Z,2.50
2022-12-04T17:11:16.382Z,2.50
2022-12-04T17:13:43.487Z,2.50
2022-12-04T17:16:14.653Z,2.50
2022-12-04T17:18:42.462Z,2.50
2022-12-04T17:21:11.561Z,2.50
2022-12-04T17:23:39.033Z,2.50
2022-12-04T17:26:08.308Z,2.60
2022-12-04T17:28:36.489Z,2.60
2022-12-04T17:31:04.661Z,2.50
2022-12-04T17:33:32.003Z,2.60
2022-12-04T17:36:00.303Z,2.60
2022-12-04T17:38:27.903Z,2.60
2022-12-04T17:41:14.700Z,2.60
2022-12-04T17:43:42.794Z,2.60
2022-12-04T17:46:11.925Z,2.60
2022-12-04T17:48:38.560Z,2.60
2022-12-04T17:51:11.565Z,2.60
2022-12-04T17:53:39.131Z,2.60
2022-12-04T17:56:11.364Z,2.60
2022-12-04T17:58:38.695Z,2.70
2022-12-04T18:01:10.555Z,2.70
2022-12-04T18:03:38.553Z,2.70
2022-12-04T18:06:37.686Z,2.70
2022-12-04T18:09:06.707Z,2.70
2022-12-04T18:11:35.569Z,2.70
2022-12-04T18:14:11.995Z,2.70
2022-12-04T18:16:42.258Z,2.70
2022-12-04T18:19:08.895Z,2.70
2022-12-04T18:21:35.568Z,2.70
2022-12-04T18:24:03.824Z,2.70
2022-12-04T18:26:36.552Z,2.70
2022-12-04T18:29:04.722Z,2.80
2022-12-04T18:31:31.879Z,2.70
2022-12-04T18:33:58.702Z,2.70
2022-12-04T18:36:28.347Z,2.70
2022-12-04T18:39:00.937Z,2.80
2022-12-04T18:41:28.428Z,2.70
2022-12-04T18:43:55.497Z,2.80
2022-12-04T18:46:22.772Z,2.80
2022-12-04T18:48:52.658Z,2.80
2022-12-04T18:51:26.752Z,2.80
2022-12-04T18:53:55.836Z,2.80
2022-12-04T18:56:22.865Z,2.80
2022-12-04T18:58:49.531Z,2.90
2022-12-04T19:01:19.052Z,2.80
2022-12-04T19:03:47.184Z,2.80
2022-12-04T19:06:14.710Z,2.90
2022-12-04T19:08:43.426Z,2.90
2022-12-04T19:11:15.117Z,2.90
2022-12-04T19:13:42.413Z,2.90
2022-12-04T19:16:14.912Z,2.90
2022-12-04T19:18:42.557Z,2.90
2022-12-04T19:21:09.279Z,2.90
2022-12-04T19:23:35.977Z,2.90
2022-12-04T19:26:03.173Z,2.90
2022-12-04T19:28:30.267Z,3.00
2022-12-04T19:30:57.038Z,2.90
2022-12-04T19:33:24.703Z,3.00
2022-12-04T19:36:02.622Z,3.00
2022-12-04T19:38:30.453Z,3.00
2022-12-04T19:41:15.123Z,3.00
2022-12-04T19:43:44.681Z,3.00
2022-12-04T19:46:13.560Z,3.00
2022-12-04T19:48:40.687Z,3.00
2022-12-04T19:51:10.543Z,3.00
2022-12-04T19:53:40.905Z,3.10
2022-12-04T19:56:13.750Z,3.00
2022-12-04T19:58:41.232Z,3.10
2022-12-04T20:01:11.327Z,3.10
2022-12-04T20:03:38.301Z,3.10
2022-12-04T20:06:10.720Z,3.00
2022-12-04T20:08:37.914Z,3.10
2022-12-04T20:11:06.192Z,3.10
2022-12-04T20:13:35.922Z,3.10
2022-12-04T20:16:06.980Z,3.10
2022-12-04T20:18:34.027Z,3.10
2022-12-04T20:21:01.344Z,3.10
2022-12-04T20:23:28.861Z,3.10
2022-12-04T20:25:55.624Z,3.20
2022-12-04T20:28:22.356Z,3.10
2022-12-04T20:30:49.913Z,3.10
2022-12-04T20:33:16.657Z,3.10
2022-12-04T20:35:43.308Z,3.10
2022-12-04T20:38:09.966Z,3.20
2022-12-04T20:40:36.603Z,3.10
2022-12-04T20:43:03.211Z,3.20
2022-12-04T20:45:30.515Z,3.10
2022-12-04T20:47:57.242Z,3.20
2022-12-04T20:50:23.994Z,3.20
2022-12-04T20:52:51.161Z,3.20
2022-12-04T20:55:17.855Z,3.20
2022-12-04T20:57:44.510Z,3.20
2022-12-04T21:00:11.635Z,3.20
2022-12-04T21:02:38.299Z,3.20
2022-12-04T21:05:05.357Z,3.20
2022-12-04T21:07:32.070Z,3.20
2022-12-04T21:09:59.214Z,3.30
2022-12-04T21:12:44.909Z,3.20
2022-12-04T21:15:30.501Z,3.30
2022-12-04T21:18:00.715Z,3.30
2022-12-04T21:20:27.312Z,3.30
2022-12-04T21:22:53.940Z,3.30
2022-12-04T21:25:20.705Z,3.30
2022-12-04T21:27:47.322Z,3.30
2022-12-04T21:30:14.186Z,3.30
2022-12-04T21:32:40.819Z,3.30
2022-12-04T21:35:07.869Z,3.30
2022-12-04T21:37:34.632Z,3.30
2022-12-04T21:40:01.501Z,3.30
2022-12-04T21:42:31.463Z,3.40
2022-12-04T21:45:03.976Z,3.40
2022-12-04T21:47:31.291Z,3.40
2022-12-04T21:49:58.283Z,3.30
2022-12-04T21:52:25.379Z,3.40
2022-12-04T21:54:53.652Z,3.40
2022-12-04T21:57:21.464Z,3.40
2022-12-04T21:59:50.335Z,3.40
2022-12-04T22:02:17.004Z,3.40
2022-12-04T22:04:43.924Z,3.40
2022-12-04T22:07:10.983Z,3.40
2022-12-04T22:09:38.647Z,3.50
2022-12-04T22:12:26.481Z,3.40
2022-12-04T22:14:52.632Z,3.40
2022-12-04T22:17:19.257Z,3.40
2022-12-04T22:19:45.867Z,3.40
2022-12-04T22:22:12.440Z,3.40
2022-12-04T22:24:39.051Z,3.50
2022-12-04T22:27:05.645Z,3.50
2022-12-04T22:30:01.504Z,3.50
2022-12-04T22:32:19.866Z,3.50
2022-12-04T22:34:49.309Z,3.50
2022-12-04T22:37:16.164Z,3.50
2022-12-04T22:39:42.768Z,3.50
2022-12-04T22:42:09.498Z,3.50
2022-12-04T22:44:36.153Z,3.50
2022-12-04T22:47:02.879Z,3.50
2022-12-04T22:49:29.630Z,3.50
2022-12-04T22:51:56.216Z,3.50
2022-12-04T22:54:22.859Z,3.50
2022-12-04T22:56:49.474Z,3.50
2022-12-04T22:59:16.120Z,3.50
2022-12-04T23:01:42.748Z,3.50
2022-12-04T23:04:10.324Z,3.60
2022-12-04T23:06:37.439Z,3.50
2022-12-04T23:09:07.669Z,3.50
2022-12-04T23:11:35.896Z,3.50
2022-12-04T23:14:05.226Z,3.60
2022-12-04T23:16:35.203Z,3.60
2022-12-04T23:19:02.120Z,3.60
2022-12-04T23:21:29.484Z,3.60
2022-12-04T23:23:57.228Z,3.60
2022-12-04T23:26:27.372Z,3.60
2022-12-04T23:28:55.207Z,3.60
2022-12-04T23:31:21.971Z,3.60
2022-12-04T23:33:48.988Z,3.60
2022-12-04T23:36:16.046Z,3.60
2022-12-04T23:38:44.133Z,3.70
2022-12-04T23:41:19.798Z,3.70
2022-12-04T23:43:46.691Z,3.60
2022-12-04T23:46:14.805Z,3.70
2022-12-04T23:48:43.394Z,3.60
2022-12-04T23:51:11.944Z,3.70
2022-12-04T23:53:38.935Z,3.70
2022-12-04T23:56:10.778Z,3.70
2022-12-04T23:58:38.068Z,3.80
